createdAt,value
2022-12-14T00:04:15.324Z,99327
2022-12-14T00:17:26.680Z,99306
2022-12-14T00:30:13.879Z,99295
2022-12-14T00:42:53.707Z,99287
2022-12-14T00:49:25.676Z,99290
2022-12-14T00:55:48.930Z,99278
2022-12-14T01:01:52.429Z,99272
2022-12-14T01:07:56.462Z,99270
2022-12-14T01:14:01.145Z,99253
2022-12-14T01:20:15.395Z,99254
2022-12-14T01:32:53.606Z,99225
2022-12-14T01:39:31.873Z,99223
2022-12-14T01:46:06.972Z,99208
2022-12-14T02:05:37.759Z,99198
2022-12-14T02:25:49.209Z,99169
2022-12-14T02:31:57.420Z,99150
2022-12-14T02:44:28.668Z,99136
2022-12-14T03:03:32.248Z,99122
2022-12-14T03:09:53.239Z,99106
2022-12-14T03:15:57.238Z,99112
2022-12-14T03:28:31.238Z,99102
2022-12-14T03:40:40.959Z,99096
2022-12-14T03:46:45.343Z,99095
2022-12-14T03:52:40.284Z,99090
2022-12-14T03:58:30.707Z,99100
2022-12-14T04:04:34.406Z,99099
2022-12-14T04:10:33.107Z,99104
2022-12-14T04:16:38.812Z,99109
2022-12-14T04:22:36.589Z,99109
2022-12-14T04:28:47.624Z,99100
2022-12-14T04:35:15.653Z,99088
2022-12-14T04:41:11.060Z,99082
2022-12-14T04:47:18.231Z,99060
2022-12-14T04:53:15.384Z,99052
2022-12-14T04:59:20.454Z,99049
2022-12-14T05:05:40.146Z,99043
2022-12-14T05:12:13.876Z,99027
2022-12-14T05:18:51.215Z,99016
2022-12-14T05:25:24.802Z,99013
2022-12-14T05:31:40.018Z,98990
2022-12-14T05:44:26.021Z,98975
2022-12-14T05:50:49.794Z,98967
2022-12-14T05:57:07.809Z,98966
2022-12-14T06:03:00.979Z,98954
2022-12-14T06:09:10.136Z,98948
2022-12-14T06:15:50.613Z,98951
2022-12-14T06:21:43.964Z,98953
2022-12-14T06:27:40.556Z,98953
2022-12-14T06:33:37.767Z,98959
2022-12-14T06:39:56.124Z,98951
2022-12-14T06:53:35.034Z,98970
2022-12-14T07:05:52.974Z,98986
2022-12-14T07:11:45.548Z,98989
2022-12-14T07:17:50.106Z,98985
2022-12-14T07:23:42.146Z,98987
2022-12-14T07:29:44.122Z,98997
2022-12-14T07:35:36.315Z,99001
2022-12-14T07:41:27.657Z,99004
2022-12-14T07:47:26.393Z,99002
2022-12-14T07:53:33.964Z,99004
2022-12-14T07:59:29.669Z,99005
2022-12-14T08:05:20.955Z,98999
2022-12-14T08:11:18.132Z,99004
2022-12-14T08:17:10.661Z,99008
2022-12-14T08:23:02.312Z,99008
2022-12-14T08:28:54.789Z,99003
2022-12-14T08:34:44.734Z,98992
2022-12-14T08:40:39.307Z,98981
2022-12-14T08:46:30.343Z,98991
2022-12-14T08:52:22.180Z,98990
2022-12-14T08:58:13.708Z,98993
2022-12-14T09:04:08.713Z,99004
2022-12-14T09:09:59.090Z,99015
2022-12-14T09:15:50.546Z,99004
2022-12-14T09:21:42.206Z,99014
2022-12-14T09:27:32.906Z,99014
2022-12-14T09:33:25.392Z,99019
2022-12-14T09:39:19.230Z,99028
2022-12-14T09:45:14.621Z,99028
2022-12-14T09:51:11.215Z,99031
2022-12-14T09:57:06.010Z,99034
2022-12-14T10:03:12.806Z,99030
2022-12-14T10:09:06.052Z,99022
2022-12-14T10:15:05.821Z,99023
2022-12-14T11:13:10.647Z,99014
2022-12-14T11:19:29.167Z,99008
2022-12-14T11:25:58.930Z,99005
2022-12-14T11:32:05.232Z,99006
2022-12-14T11:38:05.314Z,99001
2022-12-14T11:44:25.415Z,98994
2022-12-14T12:04:39.679Z,99008
2022-12-14T12:24:05.187Z,98988
2022-12-14T12:30:11.354Z,98987
2022-12-14T12:36:30.858Z,98989
2022-12-14T12:42:29.726Z,98993
2022-12-14T12:48:47.826Z,98995
2022-12-14T12:54:52.776Z,98987
2022-12-14T13:13:36.919Z,98997
2022-12-14T13:20:21.302Z,99004
2022-12-14T13:33:57.793Z,99008
2022-12-14T13:46:27.393Z,99011
2022-12-14T13:52:29.291Z,99016
2022-12-14T13:58:41.481Z,99020
2022-12-14T14:11:53.623Z,99032
2022-12-14T14:18:00.538Z,99029
2022-12-14T14:58:38.095Z,99069
2022-12-14T15:19:16.177Z,99096
2022-12-14T16:28:49.549Z,99165
2022-12-14T16:42:01.992Z,99185
2022-12-14T17:57:49.042Z,99238
2022-12-14T22:12:15.976Z,99415
2022-12-14T22:37:36.938Z,99424
2022-12-14T22:50:21.136Z,99427
2022-12-14T23:02:56.571Z,99430
2022-12-14T23:09:18.571Z,99430
2022-12-14T23:15:28.565Z,99442
2022-12-14T23:21:23.868Z,99465
2022-12-14T23:34:45.823Z,99472
2022-12-14T23:41:07.185Z,99479
2022-12-14T23:46:57.448Z,99474
2022-12-14T23:52:54.367Z,99466
2022-12-14T23:58:53.940Z,99462
